createdAt,value
2023-03-01T00:01:10.165Z,8.97
2023-03-01T00:03:36.857Z,9.23
2023-03-01T00:06:04.470Z,9.97
2023-03-01T00:08:32.126Z,8.53
2023-03-01T00:11:14.384Z,8.27
2023-03-01T00:13:41.784Z,8.90
2023-03-01T00:16:11.730Z,8.93
2023-03-01T00:18:38.283Z,9.37
2023-03-01T00:21:06.262Z,8.90
2023-03-01T00:23:35.161Z,9.77
2023-03-01T00:26:01.909Z,9.23
2023-03-01T00:28:28.541Z,9.40
2023-03-01T00:30:55.247Z,9.33
2023-03-01T00:33:21.857Z,9.60
2023-03-01T00:35:48.526Z,9.30
2023-03-01T00:38:15.104Z,8.60
2023-03-01T00:40:41.698Z,9.60
2023-03-01T00:43:09.283Z,9.27
2023-03-01T00:45:35.975Z,9.73
2023-03-01T00:48:02.576Z,10.10
2023-03-01T00:50:29.448Z,9.53
2023-03-01T00:52:56.807Z,9.60
2023-03-01T00:55:24.348Z,9.93
2023-03-01T00:57:50.948Z,9.47
2023-03-01T01:00:18.061Z,10.73
2023-03-01T01:02:44.960Z,10.17
2023-03-01T01:05:11.918Z,10.27
2023-03-01T01:07:38.690Z,10.00
2023-03-01T01:10:06.469Z,9.77
2023-03-01T01:12:33.767Z,15.17
2023-03-01T01:15:00.375Z,10.00
2023-03-01T01:17:26.968Z,10.70
2023-03-01T01:19:53.756Z,10.47
2023-03-01T01:22:20.360Z,9.73
2023-03-01T01:24:46.963Z,10.40
2023-03-01T01:27:13.601Z,10.80
2023-03-01T01:29:40.186Z,9.40
2023-03-01T01:32:06.783Z,9.77
2023-03-01T01:34:33.441Z,10.87
2023-03-01T01:37:03.683Z,10.40
2023-03-01T01:39:30.688Z,10.23
2023-03-01T01:41:57.468Z,10.77
2023-03-01T01:44:29.407Z,10.37
2023-03-01T01:47:06.655Z,10.27
2023-03-01T01:49:43.501Z,10.23
2023-03-01T01:52:13.100Z,10.60
2023-03-01T01:54:50.252Z,9.80
2023-03-01T01:57:22.974Z,9.80
2023-03-01T01:59:55.615Z,10.40
2023-03-01T02:02:23.302Z,10.80
2023-03-01T02:04:53.715Z,10.10
2023-03-01T02:07:25.625Z,10.77
2023-03-01T02:09:53.844Z,9.77
2023-03-01T02:12:25.480Z,10.23
2023-03-01T02:14:52.235Z,10.43
2023-03-01T02:17:20.324Z,10.73
2023-03-01T02:20:08.322Z,10.30
2023-03-01T02:22:38.465Z,10.00
2023-03-01T02:25:11.900Z,10.60
2023-03-01T02:28:01.264Z,11.10
2023-03-01T02:30:29.548Z,10.43
2023-03-01T02:33:03.624Z,11.27
2023-03-01T02:35:33.652Z,10.53
2023-03-01T02:38:02.696Z,10.63
2023-03-01T02:40:31.418Z,10.90
2023-03-01T02:42:59.911Z,11.37
2023-03-01T02:45:28.290Z,10.57
2023-03-01T02:47:56.415Z,10.77
2023-03-01T02:50:31.946Z,10.73
2023-03-01T02:53:22.979Z,10.87
2023-03-01T02:55:50.620Z,10.50
2023-03-01T02:58:17.417Z,10.93
2023-03-01T03:00:50.322Z,10.87
2023-03-01T03:03:22.299Z,11.50
2023-03-01T03:05:49.385Z,10.67
2023-03-01T03:08:24.953Z,10.40
2023-03-01T03:10:52.253Z,11.33
2023-03-01T03:13:20.137Z,11.07
2023-03-01T03:15:46.891Z,11.57
2023-03-01T03:18:16.538Z,10.07
2023-03-01T03:20:44.779Z,11.27
2023-03-01T03:23:12.368Z,11.87
2023-03-01T03:25:39.517Z,11.87
2023-03-01T03:28:10.668Z,11.73
2023-03-01T03:30:40.323Z,11.00
2023-03-01T03:33:08.159Z,10.10
2023-03-01T03:35:41.638Z,10.60
2023-03-01T03:38:16.456Z,11.07
2023-03-01T03:41:04.122Z,10.60
2023-03-01T03:43:32.901Z,12.53
2023-03-01T03:45:59.609Z,10.23
2023-03-01T03:48:27.309Z,11.33
2023-03-01T03:50:56.333Z,11.33
2023-03-01T03:53:25.756Z,11.60
2023-03-01T03:55:53.025Z,12.00
2023-03-01T03:58:21.820Z,11.60
2023-03-01T04:00:51.320Z,11.90
2023-03-01T04:03:19.822Z,10.97
2023-03-01T04:05:48.285Z,11.73
2023-03-01T04:08:15.284Z,11.60
2023-03-01T04:10:44.992Z,11.70
2023-03-01T04:13:14.366Z,11.63
2023-03-01T04:15:41.812Z,11.33
2023-03-01T04:18:15.535Z,12.37
2023-03-01T04:20:42.976Z,12.30
2023-03-01T04:23:20.872Z,11.43
2023-03-01T04:25:58.388Z,11.57
2023-03-01T04:28:27.824Z,12.00
2023-03-01T04:30:56.569Z,11.97
2023-03-01T04:33:24.278Z,11.63
2023-03-01T04:35:51.061Z,12.23
2023-03-01T04:38:19.462Z,11.57
2023-03-01T04:40:46.654Z,11.43
2023-03-01T04:43:16.084Z,13.43
2023-03-01T04:45:43.216Z,12.03
2023-03-01T04:48:09.883Z,12.03
2023-03-01T04:50:36.486Z,13.00
2023-03-01T04:53:03.632Z,11.83
2023-03-01T04:55:30.682Z,12.70
2023-03-01T04:57:57.261Z,11.73
2023-03-01T05:00:24.559Z,12.20
2023-03-01T05:03:00.271Z,11.70
2023-03-01T05:05:29.807Z,12.00
2023-03-01T05:08:02.362Z,12.27
2023-03-01T05:10:31.130Z,11.13
2023-03-01T05:12:58.807Z,13.00
2023-03-01T05:15:30.541Z,12.67
2023-03-01T05:18:01.832Z,12.47
2023-03-01T05:20:31.050Z,12.30
2023-03-01T05:23:00.695Z,12.37
2023-03-01T05:25:28.502Z,12.73
2023-03-01T05:27:55.074Z,12.47
2023-03-01T05:30:22.584Z,13.00
2023-03-01T05:32:56.828Z,11.90
2023-03-01T05:35:23.875Z,13.30
2023-03-01T05:37:50.759Z,12.40
2023-03-01T05:40:20.510Z,12.47
2023-03-01T05:42:49.959Z,11.13
2023-03-01T05:45:17.650Z,13.27
2023-03-01T05:47:46.716Z,12.50
2023-03-01T05:50:24.516Z,13.93
2023-03-01T05:52:53.711Z,13.47
2023-03-01T05:55:22.271Z,13.03
2023-03-01T05:57:50.964Z,11.97
2023-03-01T06:00:20.511Z,11.37
2023-03-01T06:02:47.313Z,12.80
2023-03-01T06:05:16.294Z,12.87
2023-03-01T06:07:43.351Z,12.87
2023-03-01T06:10:11.650Z,12.70
2023-03-01T06:12:39.767Z,12.83
2023-03-01T06:15:07.811Z,13.20
2023-03-01T06:17:38.778Z,12.47
2023-03-01T06:20:13.376Z,12.27
2023-03-01T06:22:40.289Z,12.23
2023-03-01T06:25:07.710Z,10.90
2023-03-01T06:27:34.340Z,11.93
2023-03-01T06:30:00.968Z,12.43
2023-03-01T06:32:27.627Z,11.53
2023-03-01T06:34:54.263Z,11.80
2023-03-01T06:37:20.892Z,13.97
2023-03-01T06:39:47.469Z,12.63
2023-03-01T06:42:14.042Z,12.43
2023-03-01T06:44:40.647Z,13.13
2023-03-01T06:47:07.200Z,10.10
2023-03-01T06:49:33.810Z,10.63
2023-03-01T06:52:00.433Z,12.63
2023-03-01T06:54:27.039Z,12.67
2023-03-01T06:56:53.639Z,13.20
2023-03-01T06:59:20.492Z,13.10
2023-03-01T07:01:47.175Z,12.63
2023-03-01T07:04:14.312Z,11.33
2023-03-01T07:06:41.321Z,11.63
2023-03-01T07:09:07.926Z,12.70
2023-03-01T07:11:34.565Z,12.67
2023-03-01T07:14:01.150Z,12.30
2023-03-01T07:16:27.893Z,10.77
2023-03-01T07:18:55.054Z,12.83
2023-03-01T07:21:21.637Z,12.00
2023-03-01T07:23:49.633Z,12.20
2023-03-01T07:26:16.243Z,11.90
2023-03-01T07:28:42.877Z,11.03
2023-03-01T07:31:09.457Z,12.33
2023-03-01T07:33:36.048Z,11.80
2023-03-01T07:36:04.954Z,12.60
2023-03-01T07:38:31.574Z,12.70
2023-03-01T07:41:03.166Z,11.87
2023-03-01T07:43:31.042Z,12.60
2023-03-01T07:46:02.183Z,12.67
2023-03-01T07:48:29.404Z,10.60
2023-03-01T07:50:58.580Z,12.23
2023-03-01T07:53:25.195Z,12.40
2023-03-01T07:56:01.651Z,11.47
2023-03-01T07:58:28.218Z,12.40
2023-03-01T08:00:54.796Z,12.20
2023-03-01T08:03:21.366Z,11.77
2023-03-01T08:05:47.944Z,12.13
2023-03-01T08:08:14.501Z,12.00
2023-03-01T08:10:41.065Z,12.23
2023-03-01T08:13:07.684Z,12.40
2023-03-01T08:15:34.263Z,10.90
2023-03-01T08:18:01.804Z,13.47
2023-03-01T08:20:28.398Z,13.37
2023-03-01T08:22:55.019Z,12.27
2023-03-01T08:25:21.622Z,12.17
2023-03-01T08:27:48.208Z,12.50
2023-03-01T08:30:15.066Z,12.40
2023-03-01T08:32:41.723Z,13.10
2023-03-01T08:35:08.838Z,12.50
2023-03-01T08:37:35.418Z,12.90
2023-03-01T08:40:02.104Z,12.77
2023-03-01T08:42:29.052Z,12.77
2023-03-01T08:44:55.659Z,12.43
2023-03-01T08:47:22.250Z,12.77
2023-03-01T08:49:51.273Z,12.20
2023-03-01T08:52:17.976Z,12.43
2023-03-01T08:54:44.634Z,13.00
2023-03-01T08:57:11.293Z,13.00
2023-03-01T08:59:38.391Z,13.30
2023-03-01T09:02:06.963Z,12.57
2023-03-01T09:04:34.364Z,12.93
2023-03-01T09:07:01.015Z,13.43
2023-03-01T09:09:27.616Z,13.20
2023-03-01T09:11:54.217Z,13.13
2023-03-01T09:14:20.784Z,12.87
2023-03-01T09:16:48.063Z,13.00
2023-03-01T09:19:15.080Z,12.80
2023-03-01T09:21:42.432Z,12.87
2023-03-01T09:24:15.814Z,13.20
2023-03-01T09:26:43.428Z,12.63
2023-03-01T09:29:10.759Z,13.50
2023-03-01T09:31:37.783Z,15.17
2023-03-01T09:34:04.396Z,13.50
2023-03-01T09:36:31.247Z,14.50
2023-03-01T09:39:01.521Z,13.50
2023-03-01T09:41:38.047Z,12.90
2023-03-01T09:44:11.812Z,12.47
2023-03-01T09:46:42.802Z,12.80
2023-03-01T09:49:20.408Z,13.70
2023-03-01T09:52:01.426Z,13.20
2023-03-01T09:54:28.345Z,13.43
2023-03-01T09:57:12.571Z,12.93
2023-03-01T10:00:01.826Z,13.27
2023-03-01T10:02:43.949Z,13.40
2023-03-01T10:05:42.282Z,12.80
2023-03-01T10:08:08.829Z,12.57
2023-03-01T10:10:41.164Z,13.63
2023-03-01T10:13:23.802Z,12.90
2023-03-01T10:16:03.033Z,13.13
2023-03-01T10:18:33.669Z,13.50
2023-03-01T10:21:16.861Z,12.27
2023-03-01T10:23:43.711Z,13.07
2023-03-01T10:26:54.346Z,12.87
2023-03-01T10:29:25.960Z,13.30
2023-03-01T10:31:54.871Z,13.60
2023-03-01T10:34:32.338Z,13.57
2023-03-01T10:37:10.084Z,13.67
2023-03-01T10:39:36.721Z,13.73
2023-03-01T10:42:06.263Z,14.07
2023-03-01T10:44:44.921Z,13.53
2023-03-01T10:47:21.762Z,13.37
2023-03-01T10:50:03.523Z,13.17
2023-03-01T10:52:42.224Z,13.07
2023-03-01T10:55:17.909Z,14.03
2023-03-01T10:57:44.516Z,13.37
2023-03-01T11:00:26.139Z,13.47
2023-03-01T11:02:58.492Z,14.87
2023-03-01T11:05:26.697Z,13.93
2023-03-01T11:07:57.428Z,13.67
2023-03-01T11:10:27.949Z,13.70
2023-03-01T11:13:08.119Z,13.80
2023-03-01T11:15:35.020Z,14.47
2023-03-01T11:18:13.428Z,14.10
2023-03-01T11:20:41.043Z,13.77
2023-03-01T11:23:13.333Z,13.57
2023-03-01T11:25:47.114Z,13.90
2023-03-01T11:28:17.402Z,14.47
2023-03-01T11:31:07.722Z,14.20
2023-03-01T11:33:43.230Z,13.60
2023-03-01T11:36:25.163Z,13.83
2023-03-01T11:38:52.388Z,13.03
2023-03-01T11:41:22.818Z,12.67
2023-03-01T11:44:20.755Z,13.47
2023-03-01T11:46:57.533Z,13.23
2023-03-01T11:49:42.718Z,13.67
2023-03-01T11:52:43.689Z,13.80
2023-03-01T11:55:16.106Z,13.20
2023-03-01T11:58:04.584Z,12.53
2023-03-01T12:00:52.636Z,13.13
2023-03-01T12:03:24.841Z,12.87
2023-03-01T12:06:13.320Z,12.30
2023-03-01T12:08:52.272Z,12.43
2023-03-01T12:11:37.827Z,12.20
2023-03-01T12:14:10.353Z,11.97
2023-03-01T12:16:42.627Z,12.77
2023-03-01T12:19:09.247Z,13.43
2023-03-01T12:21:46.538Z,12.57
2023-03-01T12:24:29.349Z,12.43
2023-03-01T12:27:22.977Z,12.73
2023-03-01T12:30:20.547Z,12.10
2023-03-01T12:33:15.519Z,12.67
2023-03-01T12:35:42.051Z,11.90
2023-03-01T12:38:44.791Z,11.73
2023-03-01T12:41:39.307Z,11.47
2023-03-01T12:44:30.004Z,12.10
2023-03-01T12:46:56.530Z,11.87
2023-03-01T12:49:45.662Z,11.77
2023-03-01T12:52:17.704Z,11.67
2023-03-01T12:54:45.573Z,12.17
2023-03-01T12:57:24.156Z,10.63
2023-03-01T13:00:18.534Z,11.13
2023-03-01T13:02:57.271Z,11.23
2023-03-01T13:05:54.752Z,11.23
2023-03-01T13:08:36.055Z,11.10
2023-03-01T13:11:05.282Z,10.27
2023-03-01T13:13:32.932Z,9.60
2023-03-01T13:16:31.937Z,10.10
2023-03-01T13:19:20.045Z,10.03
2023-03-01T13:21:48.135Z,10.47
2023-03-01T13:24:42.589Z,10.33
2023-03-01T13:27:12.031Z,9.60
2023-03-01T13:29:49.372Z,9.63
2023-03-01T13:32:44.429Z,10.27
2023-03-01T13:35:11.712Z,9.57
2023-03-01T13:37:38.938Z,9.50
2023-03-01T13:40:25.549Z,8.70
2023-03-01T13:43:05.204Z,8.40
2023-03-01T13:45:44.174Z,8.80
2023-03-01T13:48:31.481Z,8.47
2023-03-01T13:51:04.585Z,9.33
2023-03-01T13:53:36.727Z,8.57
2023-03-01T13:56:10.195Z,8.63
2023-03-01T13:59:08.080Z,8.53
2023-03-01T14:01:37.442Z,7.60
2023-03-01T14:04:19.277Z,7.97
2023-03-01T14:06:45.846Z,7.87
2023-03-01T14:09:28.546Z,7.80
2023-03-01T14:12:00.879Z,8.07
2023-03-01T14:14:32.988Z,7.80
2023-03-01T14:17:02.328Z,6.90
2023-03-01T14:19:33.528Z,7.03
2023-03-01T14:22:28.243Z,6.90
2023-03-01T14:25:01.420Z,6.97
2023-03-01T14:27:34.270Z,6.80
2023-03-01T14:30:05.474Z,7.00
2023-03-01T14:32:33.591Z,7.40
2023-03-01T14:35:01.248Z,6.97
2023-03-01T14:37:32.202Z,7.67
2023-03-01T14:40:00.828Z,7.17
2023-03-01T14:42:34.594Z,7.23
2023-03-01T14:45:03.389Z,7.07
2023-03-01T14:47:33.199Z,6.50
2023-03-01T14:50:22.366Z,6.30
2023-03-01T14:52:52.839Z,6.13
2023-03-01T14:55:25.658Z,6.43
2023-03-01T14:57:53.278Z,6.20
2023-03-01T15:00:23.933Z,6.10
2023-03-01T15:02:53.683Z,6.20
2023-03-01T15:05:28.697Z,6.40
2023-03-01T15:07:57.481Z,5.80
2023-03-01T15:10:28.359Z,6.20
2023-03-01T15:12:55.064Z,5.90
2023-03-01T15:15:30.964Z,5.57
2023-03-01T15:18:00.768Z,5.70
2023-03-01T15:20:30.245Z,6.07
2023-03-01T15:22:58.538Z,5.73
2023-03-01T15:25:30.956Z,6.43
2023-03-01T15:27:59.542Z,6.13
2023-03-01T15:30:38.298Z,5.57
2023-03-01T15:33:30.450Z,5.87
2023-03-01T15:35:59.083Z,5.80
2023-03-01T15:38:55.153Z,5.70
2023-03-01T15:41:29.126Z,6.03
2023-03-01T15:43:56.732Z,6.03
2023-03-01T15:46:36.202Z,6.23
2023-03-01T15:49:05.904Z,5.70
2023-03-01T15:51:35.440Z,5.60
2023-03-01T15:54:07.245Z,6.20
2023-03-01T15:56:34.179Z,5.27
2023-03-01T15:59:03.293Z,5.23
2023-03-01T16:01:30.536Z,6.17
2023-03-01T16:03:59.083Z,5.87
2023-03-01T16:06:25.926Z,6.10
2023-03-01T16:08:52.494Z,5.47
2023-03-01T16:11:21.473Z,5.73
2023-03-01T16:13:48.914Z,5.73
2023-03-01T16:16:17.470Z,5.70
2023-03-01T16:18:46.537Z,5.77
2023-03-01T16:21:16.633Z,6.37
2023-03-01T16:23:45.420Z,5.83
2023-03-01T16:26:12.105Z,6.90
2023-03-01T16:28:38.652Z,6.50
2023-03-01T16:31:05.574Z,5.97
2023-03-01T16:33:33.841Z,6.13
2023-03-01T16:36:12.283Z,6.03
2023-03-01T16:38:39.572Z,6.50
2023-03-01T16:41:06.515Z,5.73
2023-03-01T16:43:33.286Z,6.07
2023-03-01T16:45:59.970Z,5.90
2023-03-01T16:48:27.192Z,6.30
2023-03-01T16:50:59.082Z,5.97
2023-03-01T16:53:25.683Z,6.20
2023-03-01T16:55:59.526Z,6.60
2023-03-01T16:58:26.436Z,6.60
2023-03-01T17:00:57.425Z,6.00
2023-03-01T17:03:27.032Z,6.00
2023-03-01T17:05:53.730Z,5.80
2023-03-01T17:08:20.362Z,6.83
2023-03-01T17:10:46.964Z,5.57
2023-03-01T17:13:13.585Z,6.57
2023-03-01T17:15:43.423Z,6.43
2023-03-01T17:18:10.441Z,6.57
2023-03-01T17:20:37.361Z,5.97
2023-03-01T17:23:04.520Z,6.23
2023-03-01T17:25:31.100Z,6.30
2023-03-01T17:27:58.182Z,6.10
2023-03-01T17:30:24.804Z,6.17
2023-03-01T17:32:55.748Z,6.60
2023-03-01T17:35:22.740Z,5.87
2023-03-01T17:37:49.743Z,5.60
2023-03-01T17:40:16.615Z,5.73
2023-03-01T17:42:43.253Z,6.00
2023-03-01T17:45:10.255Z,5.80
2023-03-01T17:47:36.872Z,6.03
2023-03-01T17:50:05.594Z,6.00
2023-03-01T17:52:32.385Z,6.50
2023-03-01T17:54:59.083Z,5.50
2023-03-01T17:57:25.687Z,5.93
2023-03-01T17:59:52.260Z,6.23
2023-03-01T18:02:20.433Z,5.80
2023-03-01T18:04:47.606Z,6.00
2023-03-01T18:07:14.293Z,5.67
2023-03-01T18:09:40.855Z,5.93
2023-03-01T18:12:07.595Z,5.50
2023-03-01T18:14:34.349Z,5.80
2023-03-01T18:17:03.892Z,5.73
2023-03-01T18:19:30.505Z,6.20
2023-03-01T18:21:57.130Z,5.97
2023-03-01T18:24:24.009Z,6.27
2023-03-01T18:26:50.578Z,6.07
2023-03-01T18:29:17.185Z,5.73
2023-03-01T18:31:43.828Z,6.00
2023-03-01T18:34:11.928Z,6.77
2023-03-01T18:36:41.369Z,6.23
2023-03-01T18:39:08.682Z,6.33
2023-03-01T18:41:36.599Z,6.77
2023-03-01T18:44:04.857Z,5.80
2023-03-01T18:46:32.045Z,6.57
2023-03-01T18:48:59.254Z,6.07
2023-03-01T18:51:28.204Z,5.87
2023-03-01T18:53:55.284Z,6.37
2023-03-01T18:56:22.039Z,5.53
2023-03-01T18:58:48.738Z,6.57
2023-03-01T19:01:17.703Z,6.20
2023-03-01T19:03:45.227Z,6.20
2023-03-01T19:06:11.992Z,6.63
2023-03-01T19:08:40.832Z,5.87
2023-03-01T19:11:09.426Z,6.57
2023-03-01T19:13:38.402Z,6.20
2023-03-01T19:16:13.786Z,7.07
2023-03-01T19:18:43.330Z,6.03
2023-03-01T19:21:11.545Z,6.00
2023-03-01T19:23:41.194Z,6.47
2023-03-01T19:26:10.365Z,6.50
2023-03-01T19:28:39.452Z,6.20
2023-03-01T19:31:09.154Z,6.50
2023-03-01T19:33:37.133Z,6.70
2023-03-01T19:36:04.264Z,5.67
2023-03-01T19:38:30.948Z,6.17
2023-03-01T19:40:57.777Z,6.20
2023-03-01T19:43:25.114Z,6.70
2023-03-01T19:45:53.218Z,6.50
2023-03-01T19:48:20.420Z,6.33
2023-03-01T19:50:47.221Z,6.50
2023-03-01T19:53:15.214Z,6.47
2023-03-01T19:55:42.590Z,6.00
2023-03-01T19:58:14.508Z,5.83
2023-03-01T20:00:46.992Z,6.27
2023-03-01T20:03:15.042Z,6.03
2023-03-01T20:05:42.938Z,6.20
2023-03-01T20:08:09.679Z,6.13
2023-03-01T20:10:36.274Z,6.20
2023-03-01T20:13:03.032Z,5.90
2023-03-01T20:15:30.303Z,5.83
2023-03-01T20:17:56.921Z,6.73
2023-03-01T20:20:23.652Z,6.40
2023-03-01T20:22:50.420Z,6.73
2023-03-01T20:25:17.494Z,6.60
2023-03-01T20:27:47.809Z,6.50
2023-03-01T20:30:15.821Z,6.50
2023-03-01T20:32:43.243Z,6.70
2023-03-01T20:35:11.397Z,6.40
2023-03-01T20:37:38.419Z,7.00
2023-03-01T20:40:05.686Z,6.83
2023-03-01T20:42:32.279Z,6.57
2023-03-01T20:44:58.851Z,6.70
2023-03-01T20:47:25.495Z,6.93
2023-03-01T20:49:52.508Z,6.87
2023-03-01T20:52:19.401Z,6.53
2023-03-01T20:54:45.994Z,6.37
2023-03-01T20:57:12.576Z,6.53
2023-03-01T20:59:39.189Z,6.67
2023-03-01T21:02:05.943Z,6.80
2023-03-01T21:04:32.545Z,6.77
2023-03-01T21:06:59.208Z,6.53
2023-03-01T21:09:25.824Z,6.83
2023-03-01T21:11:52.386Z,6.97
2023-03-01T21:14:18.998Z,6.57
2023-03-01T21:16:45.862Z,6.93
2023-03-01T21:19:12.815Z,6.37
2023-03-01T21:21:39.517Z,6.97
2023-03-01T21:24:06.718Z,6.70
2023-03-01T21:26:33.695Z,7.17
2023-03-01T21:29:03.973Z,7.70
2023-03-01T21:31:34.789Z,7.30
2023-03-01T21:34:04.750Z,7.03
2023-03-01T21:36:32.871Z,7.63
2023-03-01T21:39:01.896Z,6.77
2023-03-01T21:41:31.849Z,7.77
2023-03-01T21:44:00.869Z,8.07
2023-03-01T21:46:30.932Z,7.90
2023-03-01T21:48:58.707Z,7.17
2023-03-01T21:51:27.306Z,7.50
2023-03-01T21:53:57.498Z,6.93
2023-03-01T21:56:29.710Z,7.83
2023-03-01T21:58:57.764Z,7.83
2023-03-01T22:01:29.249Z,7.50
2023-03-01T22:03:57.628Z,6.87
2023-03-01T22:06:29.731Z,7.50
2023-03-01T22:09:05.822Z,6.90
2023-03-01T22:11:36.032Z,7.43
2023-03-01T22:14:04.833Z,7.60
2023-03-01T22:16:33.799Z,7.77
2023-03-01T22:19:01.096Z,7.37
2023-03-01T22:21:27.847Z,7.47
2023-03-01T22:23:55.562Z,7.47
2023-03-01T22:26:24.357Z,7.87
2023-03-01T22:28:51.865Z,7.20
2023-03-01T22:31:18.621Z,7.03
2023-03-01T22:33:45.280Z,7.80
2023-03-01T22:36:11.866Z,7.53
2023-03-01T22:38:39.446Z,7.63
2023-03-01T22:41:06.270Z,7.07
2023-03-01T22:43:32.930Z,7.43
2023-03-01T22:46:00.076Z,8.00
2023-03-01T22:48:26.837Z,8.00
2023-03-01T22:50:53.525Z,7.53
2023-03-01T22:53:20.096Z,7.73
2023-03-01T22:55:46.677Z,7.73
2023-03-01T22:58:13.264Z,7.80
2023-03-01T23:00:39.854Z,7.43
2023-03-01T23:03:06.550Z,7.73
2023-03-01T23:05:33.262Z,7.93
2023-03-01T23:07:59.832Z,7.77
2023-03-01T23:10:26.537Z,7.20
2023-03-01T23:12:57.071Z,7.30
2023-03-01T23:15:23.788Z,7.27
2023-03-01T23:17:50.349Z,8.40
2023-03-01T23:20:17.072Z,7.13
2023-03-01T23:22:43.865Z,7.97
2023-03-01T23:25:15.009Z,8.00
2023-03-01T23:27:41.787Z,7.77
2023-03-01T23:30:09.188Z,7.37
2023-03-01T23:32:40.433Z,8.10
2023-03-01T23:35:09.074Z,7.70
2023-03-01T23:37:35.828Z,7.93
2023-03-01T23:40:05.927Z,7.50
2023-03-01T23:42:33.945Z,8.50
2023-03-01T23:45:00.602Z,7.63
2023-03-01T23:47:27.224Z,8.23
2023-03-01T23:49:53.927Z,8.73
2023-03-01T23:52:20.693Z,8.00
2023-03-01T23:54:47.298Z,7.93
2023-03-01T23:57:13.892Z,8.23
2023-03-01T23:59:41.046Z,7.83
